Time;durP1;ratioP1;P1;durP2;ratioP2;P2;SDS_P1;SDS_P2;PMS_P1;PMS_P2;Temp;Humidity;BMP_temperature;BMP_pressure;BME280_temperature;BME280_humidity;BME280_pressure;Samples;Min_cycle;Max_cycle;Signal;HPM_P1;HPM_P2
2022/07/15 00:00:38;;;;;;;;;;;;;;;14.82;89.08;98129.19;4668529;30;20396;-81
2022/07/15 00:03:06;;;;;;;;;;;;;;;14.84;89.39;98142.47;4669277;30;20372;-82
2022/07/15 00:05:45;;;;;;;;;;;;;;;14.82;89.21;98126.47;4668695;30;19923;-81
2022/07/15 00:08:16;;;;;;;;;;;;;;;14.83;89.02;98130.78;4668648;30;20380;-82
2022/07/15 00:15:09;;;;;;;;;;;;;;;14.73;88.89;98129.00;4668560;30;19926;-82
2022/07/15 00:17:38;;;;;;;;;;;;;;;14.70;89.01;98126.88;4667410;30;20396;-80
2022/07/15 00:20:09;;;;;;;;;;;;;;;14.65;89.05;98128.88;4668171;30;19930;-81
2022/07/15 00:27:09;;;;;;;;;;;;;;;14.60;89.33;98127.03;4668341;30;20423;-82
2022/07/15 00:29:46;;;;;;;;;;;;;;;14.56;89.51;98139.59;4625644;30;20344;-81
2022/07/15 00:36:41;;;;;;;;;;;;;;;14.44;90.32;98129.09;4668469;30;20394;-82
2022/07/15 00:39:10;;;;;;;;;;;;;;;14.42;90.69;98125.06;4668040;30;20395;-82
2022/07/15 00:46:19;;;;;;;;;;;;;;;14.25;91.40;98130.97;4668269;30;19955;-81
2022/07/15 00:48:55;;;;;;;;;;;;;;;14.17;91.98;98132.41;4668279;30;20431;-82
2022/07/15 00:55:59;;;;;;;;;;;;;;;14.04;93.00;98124.97;4666878;30;19970;-81
2022/07/15 00:58:31;;;;;;;;;;;;;;;14.01;93.33;98125.56;4666543;30;20400;-81
2022/07/15 01:05:29;;;;;;;;;;;;;;;13.96;94.04;98136.47;4668141;30;20514;-82
2022/07/15 01:08:07;;;;;;;;;;;;;;;13.93;94.22;98143.28;4667733;30;19924;-82
2022/07/15 01:10:36;;;;;;;;;;;;;;;13.88;94.70;98146.84;4667941;30;20361;-81
2022/07/15 01:13:04;;;;;;;;;;;;;;;13.87;94.60;98153.38;4667742;30;20369;-81
2022/07/15 01:15:35;;;;;;;;;;;;;;;13.84;95.01;98158.53;4667717;30;20365;-81
2022/07/15 01:18:08;;;;;;;;;;;;;;;13.82;95.35;98161.56;4625835;30;20019;-81
2022/07/15 01:20:42;;;;;;;;;;;;;;;13.79;95.57;98162.09;4625554;30;20461;-81
2022/07/15 01:23:14;;;;;;;;;;;;;;;13.76;95.83;98159.19;4638821;30;19924;-82
2022/07/15 01:26:15;;;;;;;;;;;;;;;13.76;96.28;98178.97;4644370;30;19923;-82
2022/07/15 01:28:44;;;;;;;;;;;;;;;13.77;96.54;98171.63;4666130;30;20361;-81
2022/07/15 01:35:39;;;;;;;;;;;;;;;13.71;97.00;98189.84;4667493;30;20107;-80
2022/07/15 01:38:11;;;;;;;;;;;;;;;13.67;97.23;98194.22;4667149;30;20434;-81
2022/07/15 01:40:43;;;;;;;;;;;;;;;13.64;97.50;98194.78;4667113;30;20369;-81
2022/07/15 01:43:14;;;;;;;;;;;;;;;13.60;97.69;98191.03;4652891;30;20356;-80
2022/07/15 01:45:46;;;;;;;;;;;;;;;13.57;97.82;98191.59;4667141;30;20435;-80
2022/07/15 01:55:34;;;;;;;;;;;;;;;13.57;97.88;98188.88;4665736;30;20328;-80
2022/07/15 01:58:06;;;;;;;;;;;;;;;13.57;97.68;98192.41;4638168;30;20387;-80
2022/07/15 02:00:42;;;;;;;;;;;;;;;13.58;97.37;98204.88;4666711;30;20365;-80
2022/07/15 02:03:16;;;;;;;;;;;;;;;13.56;97.12;98192.69;4356529;24;10000756;-81
2022/07/15 02:05:43;;;;;;;;;;;;;;;13.56;97.11;98189.97;4711289;30;20406;-80
2022/07/15 02:08:15;;;;;;;;;;;;;;;13.55;97.28;98200.03;4702372;30;19935;-80
2022/07/15 02:10:43;;;;;;;;;;;;;;;13.54;97.11;98200.28;4708908;30;19984;-81
2022/07/15 02:13:16;;;;;;;;;;;;;;;13.48;97.19;98206.84;4716374;30;20399;-82
2022/07/15 02:16:09;;;;;;;;;;;;;;;13.46;97.32;98209.03;4733401;30;19930;-81
2022/07/15 02:18:36;;;;;;;;;;;;;;;13.48;97.05;98206.84;4742555;30;19987;-82
2022/07/15 02:21:03;;;;;;;;;;;;;;;13.49;96.65;98209.28;4733169;30;20357;-82
2022/07/15 02:23:30;;;;;;;;;;;;;;;13.49;96.54;98211.19;4717885;30;19930;-81
2022/07/15 02:25:57;;;;;;;;;;;;;;;13.46;96.52;98206.31;4732319;30;20358;-82
2022/07/15 02:28:28;;;;;;;;;;;;;;;13.42;96.57;98211.50;4717764;30;19954;-81
2022/07/15 02:31:16;;;;;;;;;;;;;;;13.43;96.49;98205.78;4719065;30;19939;-80
2022/07/15 02:33:48;;;;;;;;;;;;;;;13.49;96.34;98205.75;4733714;30;19930;-79
2022/07/15 02:36:39;;;;;;;;;;;;;;;13.55;96.16;98208.16;4732731;30;19930;-81
2022/07/15 02:40:19;;;;;;;;;;;;;;;13.61;95.41;98206.22;4717468;30;19930;-81
2022/07/15 02:43:34;;;;;;;;;;;;;;;13.67;95.15;98196.91;4717191;30;20011;-79
2022/07/15 02:46:39;;;;;;;;;;;;;;;13.75;94.97;98207.19;4733167;30;19938;-82
2022/07/15 02:49:11;;;;;;;;;;;;;;;13.80;94.75;98217.97;4731590;30;19968;-81
2022/07/15 02:51:39;;;;;;;;;;;;;;;13.83;94.40;98214.69;4732025;30;19935;-81
2022/07/15 02:54:09;;;;;;;;;;;;;;;13.87;94.15;98218.47;4732985;30;19931;-81
2022/07/15 02:56:41;;;;;;;;;;;;;;;13.94;93.78;98220.03;4732148;30;19977;-81
2022/07/15 02:59:10;;;;;;;;;;;;;;;14.00;93.13;98222.41;4717399;30;19963;-81
2022/07/15 03:01:39;;;;;;;;;;;;;;;14.05;92.55;98226.97;4731816;30;19937;-81
2022/07/15 03:04:10;;;;;;;;;;;;;;;14.06;92.15;98215.84;4743276;30;19934;-80
2022/07/15 03:06:43;;;;;;;;;;;;;;;14.16;91.94;98223.06;4732123;30;19930;-81
2022/07/15 03:09:18;;;;;;;;;;;;;;;14.23;91.90;98233.56;4724024;30;19931;-80
2022/07/15 03:11:47;;;;;;;;;;;;;;;14.25;91.65;98237.59;4714493;30;20047;-81
2022/07/15 03:14:14;;;;;;;;;;;;;;;14.14;91.83;98236.09;4714066;30;19930;-81
2022/07/15 03:16:46;;;;;;;;;;;;;;;14.03;92.28;98234.59;4713627;30;19987;-82
2022/07/15 03:19:13;;;;;;;;;;;;;;;13.97;92.65;98239.25;4698845;30;20318;-81
2022/07/15 03:21:44;;;;;;;;;;;;;;;13.92;92.79;98252.84;4699449;30;20015;-82
2022/07/15 03:24:13;;;;;;;;;;;;;;;13.89;92.76;98261.56;4728404;30;20357;-81
2022/07/15 03:26:42;;;;;;;;;;;;;;;13.85;92.96;98258.63;4714981;30;19931;-82
2022/07/15 03:29:09;;;;;;;;;;;;;;;13.81;93.33;98257.56;4698955;30;19935;-82
2022/07/15 03:31:39;;;;;;;;;;;;;;;13.79;93.61;98254.31;4714035;30;20017;-84
2022/07/15 03:34:09;;;;;;;;;;;;;;;13.78;93.88;98250.00;4685724;30;20430;-85
2022/07/15 03:36:37;;;;;;;;;;;;;;;13.93;93.61;98256.41;4713245;30;19938;-81
2022/07/15 03:39:07;;;;;;;;;;;;;;;14.09;93.15;98263.28;4383277;30;10000179;-83
2022/07/15 03:41:35;;;;;;;;;;;;;;;14.19;92.25;98265.91;4710565;30;19930;-81
2022/07/15 03:44:02;;;;;;;;;;;;;;;14.27;91.83;98270.72;4710255;30;20011;-82
2022/07/15 03:46:29;;;;;;;;;;;;;;;14.37;91.14;98266.28;4712190;30;19942;-86
2022/07/15 03:49:02;;;;;;;;;;;;;;;14.42;90.52;98261.59;4710949;30;19930;-85
2022/07/15 03:51:32;;;;;;;;;;;;;;;14.50;90.17;98257.44;4711541;30;19973;-83
2022/07/15 03:54:05;;;;;;;;;;;;;;;14.63;89.39;98275.00;4710728;30;20021;-81
2022/07/15 03:56:31;;;;;;;;;;;;;;;14.69;88.91;98265.69;4711217;30;19941;-83
2022/07/15 03:59:00;;;;;;;;;;;;;;;14.72;88.71;98259.69;4710856;30;19931;-80
2022/07/15 04:01:27;;;;;;;;;;;;;;;14.80;88.43;98264.47;4711005;30;19931;-82
2022/07/15 04:03:55;;;;;;;;;;;;;;;14.88;87.95;98273.88;4710886;30;19935;-84
2022/07/15 04:06:24;;;;;;;;;;;;;;;14.93;87.20;98266.47;4712332;30;19931;-81
2022/07/15 04:08:52;;;;;;;;;;;;;;;15.00;87.11;98259.91;4713170;30;20394;-81
2022/07/15 04:11:19;;;;;;;;;;;;;;;15.09;86.80;98260.84;4715313;30;20424;-81
2022/07/15 04:13:46;;;;;;;;;;;;;;;15.19;86.04;98274.28;4714248;30;20398;-83
2022/07/15 04:16:14;;;;;;;;;;;;;;;15.28;85.60;98283.41;4713975;30;19968;-82
2022/07/15 04:18:41;;;;;;;;;;;;;;;15.35;85.51;98288.50;4699514;30;20373;-81
2022/07/15 04:21:08;;;;;;;;;;;;;;;15.43;85.26;98297.91;4728626;30;19989;-82
2022/07/15 04:23:36;;;;;;;;;;;;;;;15.55;84.35;98301.00;4715365;30;20041;-82
2022/07/15 04:26:07;;;;;;;;;;;;;;;15.66;83.51;98297.03;4714015;30;20057;-83
2022/07/15 04:28:34;;;;;;;;;;;;;;;15.73;82.89;98294.78;4714346;30;20025;-82
2022/07/15 04:31:01;;;;;;;;;;;;;;;15.77;81.97;98301.25;4715495;30;20020;-83
2022/07/15 04:33:37;;;;;;;;;;;;;;;15.90;81.86;98310.56;4717405;30;20426;-82
2022/07/15 04:36:04;;;;;;;;;;;;;;;16.00;81.71;98318.56;4718526;30;19931;-82
2022/07/15 04:38:31;;;;;;;;;;;;;;;16.11;81.05;98313.75;4719200;30;19938;-83
2022/07/15 04:40:59;;;;;;;;;;;;;;;16.15;80.42;98327.56;4717148;30;20363;-83
2022/07/15 04:43:45;;;;;;;;;;;;;;;16.19;80.28;98321.25;4704806;30;20044;-82
2022/07/15 04:46:13;;;;;;;;;;;;;;;16.25;79.99;98327.41;4718510;30;19977;-83
2022/07/15 04:51:31;;;;;;;;;;;;;;;16.46;79.36;98346.94;4719285;30;19989;-82
2022/07/15 04:53:59;;;;;;;;;;;;;;;16.53;79.10;98338.38;4731794;30;20022;-81
2022/07/15 04:56:34;;;;;;;;;;;;;;;16.62;78.91;98339.31;4717859;30;19931;-81
2022/07/15 04:59:04;;;;;;;;;;;;;;;16.68;78.18;98338.09;4697526;30;20318;-82
2022/07/15 05:01:31;;;;;;;;;;;;;;;16.72;77.54;98336.41;4710863;30;19935;-81
2022/07/15 05:03:59;;;;;;;;;;;;;;;16.79;77.36;98333.31;4708679;30;19937;-82
2022/07/15 05:06:25;;;;;;;;;;;;;;;16.89;77.53;98335.84;4701894;30;19935;-80
2022/07/15 05:08:52;;;;;;;;;;;;;;;16.98;76.89;98342.19;4710072;30;20058;-84
2022/07/15 05:11:21;;;;;;;;;;;;;;;17.00;76.64;98323.63;4718420;30;20015;-82
2022/07/15 05:13:48;;;;;;;;;;;;;;;17.07;76.31;98307.66;4709545;30;19943;-82
2022/07/15 05:16:16;;;;;;;;;;;;;;;17.16;76.14;98313.19;4699096;30;19935;-83
2022/07/15 05:18:45;;;;;;;;;;;;;;;17.16;75.87;98315.94;4699239;30;19945;-81
2022/07/15 05:21:16;;;;;;;;;;;;;;;17.20;75.61;98311.50;4700342;30;19989;-82
2022/07/15 05:23:50;;;;;;;;;;;;;;;17.24;75.23;98312.50;4699167;30;20295;-81
2022/07/15 05:26:37;;;;;;;;;;;;;;;17.35;75.03;98312.28;4705121;30;19969;-84
2022/07/15 05:29:15;;;;;;;;;;;;;;;17.46;74.88;98306.28;4704468;30;20395;-82
2022/07/15 05:31:42;;;;;;;;;;;;;;;17.56;74.68;98308.00;4702556;30;19972;-83
2022/07/15 05:34:13;;;;;;;;;;;;;;;17.71;74.12;98304.91;4711884;30;19931;-85
2022/07/15 05:36:43;;;;;;;;;;;;;;;17.76;73.11;98309.44;4712908;30;20010;-84
2022/07/15 05:39:14;;;;;;;;;;;;;;;17.85;72.18;98317.72;4712708;30;20383;-84
2022/07/15 05:41:54;;;;;;;;;;;;;;;17.97;72.05;98307.88;4696674;30;19937;-84
2022/07/15 05:44:22;;;;;;;;;;;;;;;18.08;71.75;98311.19;4702251;30;19988;-83
2022/07/15 05:47:05;;;;;;;;;;;;;;;18.26;71.00;98308.56;4705435;30;19930;-86
2022/07/15 05:49:36;;;;;;;;;;;;;;;18.30;69.80;98315.78;4700199;30;19993;-83
2022/07/15 05:52:09;;;;;;;;;;;;;;;18.33;70.33;98308.91;4706945;30;19931;-83
2022/07/15 05:54:39;;;;;;;;;;;;;;;18.51;70.43;98324.28;4699576;30;20010;-81
2022/07/15 05:57:08;;;;;;;;;;;;;;;18.57;67.33;98325.75;4694806;30;19937;-81
2022/07/15 05:59:35;;;;;;;;;;;;;;;18.46;67.42;98323.59;4699802;30;19931;-83
2022/07/15 06:02:22;;;;;;;;;;;;;;;18.56;67.60;98318.69;4702096;30;19997;-83
2022/07/15 06:04:49;;;;;;;;;;;;;;;18.78;67.47;98312.38;4693491;30;19931;-83
2022/07/15 06:07:16;;;;;;;;;;;;;;;18.87;66.41;98317.91;4701007;30;19931;-83
2022/07/15 06:10:01;;;;;;;;;;;;;;;18.97;65.64;98312.16;4723874;30;19934;-82
2022/07/15 06:12:32;;;;;;;;;;;;;;;19.02;65.45;98301.06;4705795;30;20361;-85
2022/07/15 06:15:01;;;;;;;;;;;;;;;19.14;65.40;98319.59;4706692;30;20310;-84
2022/07/15 06:17:30;;;;;;;;;;;;;;;19.04;65.84;98319.88;4718462;30;19935;-82
2022/07/15 06:19:59;;;;;;;;;;;;;;;19.13;65.90;98312.50;4710015;30;20301;-83
2022/07/15 06:22:26;;;;;;;;;;;;;;;19.47;64.17;98330.09;4712079;30;19989;-84
2022/07/15 06:24:54;;;;;;;;;;;;;;;19.53;63.54;98319.84;4706320;30;19930;-85
2022/07/15 06:27:21;;;;;;;;;;;;;;;19.35;64.88;98314.34;4710372;30;19930;-86
2022/07/15 06:29:57;;;;;;;;;;;;;;;19.35;63.46;98308.88;4660607;30;10000410;-84
2022/07/15 06:32:24;;;;;;;;;;;;;;;19.47;63.40;98298.09;4713019;30;19935;-83
2022/07/15 06:34:51;;;;;;;;;;;;;;;19.96;63.06;98299.91;4711780;30;19930;-84
2022/07/15 06:37:19;;;;;;;;;;;;;;;20.05;61.38;98314.38;4704742;30;19937;-85
2022/07/15 06:39:47;;;;;;;;;;;;;;;19.57;62.79;98301.63;4703836;30;20614;-85
2022/07/15 06:42:14;;;;;;;;;;;;;;;19.28;64.30;98317.53;4707698;30;19931;-85
2022/07/15 06:44:41;;;;;;;;;;;;;;;19.33;63.91;98311.09;4723076;30;19937;-83
2022/07/15 06:47:08;;;;;;;;;;;;;;;19.43;62.93;98304.53;4709003;30;19931;-84
2022/07/15 06:49:35;;;;;;;;;;;;;;;19.57;62.36;98313.41;4710877;30;20032;-84
2022/07/15 06:52:05;;;;;;;;;;;;;;;19.65;61.26;98309.06;4707229;30;20391;-84
2022/07/15 06:54:33;;;;;;;;;;;;;;;19.75;60.95;98314.25;4708557;30;19938;-82
2022/07/15 06:57:01;;;;;;;;;;;;;;;19.59;62.54;98324.03;4694219;30;19931;-83
2022/07/15 06:59:28;;;;;;;;;;;;;;;19.79;62.18;98326.16;4700779;30;20406;-85
2022/07/15 07:01:58;;;;;;;;;;;;;;;20.11;61.28;98337.75;4711518;30;19938;-82
2022/07/15 07:04:25;;;;;;;;;;;;;;;20.10;60.55;98333.41;4711315;30;20417;-83
2022/07/15 07:06:52;;;;;;;;;;;;;;;19.92;60.69;98327.94;4699802;30;19953;-83
2022/07/15 07:09:19;;;;;;;;;;;;;;;19.83;60.87;98332.63;4712264;30;19931;-84
2022/07/15 07:11:46;;;;;;;;;;;;;;;20.13;61.64;98338.25;4713072;30;19931;-84
2022/07/15 07:14:13;;;;;;;;;;;;;;;20.44;61.52;98331.75;4705647;30;19931;-83
2022/07/15 07:16:49;;;;;;;;;;;;;;;20.15;60.15;98341.44;4712549;30;20033;-83
2022/07/15 07:19:16;;;;;;;;;;;;;;;20.18;59.02;98340.81;4712316;30;19937;-84
2022/07/15 07:21:43;;;;;;;;;;;;;;;19.88;58.41;98351.63;4712864;30;19982;-83
2022/07/15 07:24:10;;;;;;;;;;;;;;;19.69;57.79;98351.13;4712697;30;19939;-83
2022/07/15 07:26:37;;;;;;;;;;;;;;;19.82;58.46;98358.38;4712590;30;19935;-84
2022/07/15 07:29:33;;;;;;;;;;;;;;;19.74;58.43;98370.13;4705242;30;19931;-83
2022/07/15 07:32:15;;;;;;;;;;;;;;;20.03;58.56;98358.56;4675841;30;20097;-83
2022/07/15 07:34:42;;;;;;;;;;;;;;;20.09;58.06;98360.00;4678942;30;20018;-83
2022/07/15 07:37:09;;;;;;;;;;;;;;;20.14;57.61;98372.72;4678759;30;19931;-83
2022/07/15 07:39:36;;;;;;;;;;;;;;;20.39;57.27;98370.28;4663416;30;19931;-82
2022/07/15 07:42:03;;;;;;;;;;;;;;;20.75;54.56;98367.16;4678496;30;20339;-84
2022/07/15 07:44:33;;;;;;;;;;;;;;;20.91;54.13;98359.22;4664626;30;19938;-83
2022/07/15 07:47:00;;;;;;;;;;;;;;;21.12;53.89;98362.84;4673078;30;19931;-84
2022/07/15 07:49:27;;;;;;;;;;;;;;;21.02;52.94;98354.19;4678543;30;19935;-83
2022/07/15 07:52:02;;;;;;;;;;;;;;;20.75;53.84;98342.50;4665442;30;19939;-86
2022/07/15 07:54:30;;;;;;;;;;;;;;;20.48;54.37;98344.47;4672030;30;20051;-83
2022/07/15 07:56:57;;;;;;;;;;;;;;;20.29;53.19;98342.09;4661736;30;19931;-85
2022/07/15 07:59:24;;;;;;;;;;;;;;;20.52;52.55;98348.16;4649243;30;20408;-85
2022/07/15 08:01:51;;;;;;;;;;;;;;;20.46;52.42;98345.91;4673587;30;19935;-83
2022/07/15 08:04:22;;;;;;;;;;;;;;;20.70;50.81;98345.41;4673304;30;19945;-84
2022/07/15 08:06:48;;;;;;;;;;;;;;;20.99;49.79;98326.28;4681581;30;20029;-84
2022/07/15 08:09:16;;;;;;;;;;;;;;;21.21;48.89;98316.16;4681545;30;20452;-83
2022/07/15 08:11:44;;;;;;;;;;;;;;;21.37;47.89;98322.69;4676394;30;19935;-84
2022/07/15 08:14:12;;;;;;;;;;;;;;;21.53;48.12;98322.94;4674022;30;20418;-83
2022/07/15 08:16:42;;;;;;;;;;;;;;;21.81;47.79;98336.94;4658880;30;19976;-83
2022/07/15 08:19:13;;;;;;;;;;;;;;;22.12;47.34;98374.19;4663831;30;19937;-83
2022/07/15 08:21:41;;;;;;;;;;;;;;;22.12;45.98;98356.91;4674930;30;19931;-84
2022/07/15 08:24:08;;;;;;;;;;;;;;;21.69;47.05;98390.97;4675633;30;20374;-86
2022/07/15 08:26:35;;;;;;;;;;;;;;;21.86;46.99;98374.38;4664033;30;20399;-83
2022/07/15 08:29:02;;;;;;;;;;;;;;;22.00;46.29;98382.34;4668339;30;19975;-85
2022/07/15 08:31:32;;;;;;;;;;;;;;;22.49;45.98;98385.38;4674113;30;19954;-84
2022/07/15 08:33:59;;;;;;;;;;;;;;;22.70;44.87;98382.56;4674885;30;19932;-82
2022/07/15 08:36:26;;;;;;;;;;;;;;;22.93;43.48;98389.25;4694619;30;19941;-81
2022/07/15 08:38:53;;;;;;;;;;;;;;;23.02;43.50;98380.94;4713992;30;19956;-82
2022/07/15 08:41:20;;;;;;;;;;;;;;;23.07;43.45;98388.19;4714108;30;20049;-84
2022/07/15 08:43:47;;;;;;;;;;;;;;;23.10;43.89;98376.47;4707427;30;19931;-80
2022/07/15 08:46:15;;;;;;;;;;;;;;;22.98;44.35;98382.75;4714486;30;19931;-84
2022/07/15 08:48:51;;;;;;;;;;;;;;;22.16;46.31;98383.38;4706993;30;19931;-82
2022/07/15 08:51:21;;;;;;;;;;;;;;;22.53;44.91;98390.97;4689232;30;19930;-83
2022/07/15 08:53:48;;;;;;;;;;;;;;;22.90;43.25;98395.44;4703855;30;19935;-82
2022/07/15 08:56:19;;;;;;;;;;;;;;;23.34;41.58;98387.47;4711022;30;20680;-81
2022/07/15 08:58:46;;;;;;;;;;;;;;;23.42;41.31;98393.22;4709850;30;19934;-82
2022/07/15 09:01:25;;;;;;;;;;;;;;;23.64;40.53;98403.78;4710304;30;20428;-82
2022/07/15 09:03:52;;;;;;;;;;;;;;;23.90;40.19;98402.63;4709698;30;19931;-83
2022/07/15 09:06:33;;;;;;;;;;;;;;;24.41;38.39;98405.72;4711743;30;19931;-83
2022/07/15 09:09:18;;;;;;;;;;;;;;;24.30;38.44;98416.41;4711797;30;19997;-82
2022/07/15 09:12:12;;;;;;;;;;;;;;;24.29;38.46;98409.31;4704482;30;20004;-83
2022/07/15 09:14:44;;;;;;;;;;;;;;;24.83;37.97;98399.78;4714299;30;20025;-83
2022/07/15 09:17:12;;;;;;;;;;;;;;;24.39;39.08;98405.25;4707395;30;19965;-83
2022/07/15 09:19:58;;;;;;;;;;;;;;;25.02;38.52;98412.91;4706725;30;19937;-81
2022/07/15 09:22:50;;;;;;;;;;;;;;;25.33;37.61;98417.66;4703836;30;20009;-81
2022/07/15 09:25:18;;;;;;;;;;;;;;;25.19;37.67;98396.00;4681031;30;20333;-82
2022/07/15 09:27:45;;;;;;;;;;;;;;;24.13;38.59;98408.41;4696734;30;19991;-83
2022/07/15 09:36:03;;;;;;;;;;;;;;;22.21;40.86;98407.13;4706390;30;19930;-82
2022/07/15 09:38:40;;;;;;;;;;;;;;;22.02;41.45;98402.06;4712832;30;19989;-82
2022/07/15 09:41:08;;;;;;;;;;;;;;;23.55;38.68;98411.38;4710341;30;19985;-82
2022/07/15 09:43:42;;;;;;;;;;;;;;;23.93;38.91;98401.94;4710682;30;20001;-82
2022/07/15 09:46:09;;;;;;;;;;;;;;;23.56;40.39;98404.69;4710187;30;19931;-81
2022/07/15 09:48:41;;;;;;;;;;;;;;;23.77;38.31;98407.34;4710404;30;19935;-83
2022/07/15 09:51:09;;;;;;;;;;;;;;;23.19;40.30;98410.19;4708915;30;20016;-83
2022/07/15 09:53:36;;;;;;;;;;;;;;;23.57;40.18;98400.78;4703137;30;19935;-82
2022/07/15 09:56:04;;;;;;;;;;;;;;;22.71;40.21;98403.41;4702683;30;19930;-83
2022/07/15 09:58:31;;;;;;;;;;;;;;;22.05;42.36;98407.72;4713012;30;20519;-83
2022/07/15 10:00:58;;;;;;;;;;;;;;;23.82;39.99;98409.88;4707530;30;20026;-81
2022/07/15 10:03:25;;;;;;;;;;;;;;;24.95;37.96;98415.47;4712277;30;20387;-83
2022/07/15 10:05:54;;;;;;;;;;;;;;;26.02;36.84;98412.56;4704474;30;19978;-83
2022/07/15 10:08:22;;;;;;;;;;;;;;;26.57;35.55;98412.56;4706095;30;19979;-85
2022/07/15 10:10:51;;;;;;;;;;;;;;;26.89;34.37;98406.81;4701767;30;20644;-85
2022/07/15 10:13:30;;;;;;;;;;;;;;;27.09;33.75;98408.34;4712289;30;19978;-85
2022/07/15 10:15:57;;;;;;;;;;;;;;;27.52;33.22;98420.19;4712160;30;19991;-85
2022/07/15 10:18:43;;;;;;;;;;;;;;;27.02;32.24;98427.63;4705385;30;19988;-86
2022/07/15 10:21:35;;;;;;;;;;;;;;;24.83;34.20;98421.84;4706517;30;19939;-86
2022/07/15 10:24:40;;;;;;;;;;;;;;;23.41;36.77;98413.66;4651783;30;19932;-85
2022/07/15 10:27:10;;;;;;;;;;;;;;;22.93;39.01;98415.97;4641943;30;20023;-85
2022/07/15 10:29:38;;;;;;;;;;;;;;;22.70;39.47;98413.63;4631078;30;20467;-86
2022/07/15 10:32:08;;;;;;;;;;;;;;;22.92;39.31;98404.16;4662949;30;20502;-86
2022/07/15 10:34:45;;;;;;;;;;;;;;;23.12;38.30;98407.22;4656848;30;19932;-84
2022/07/15 10:37:12;;;;;;;;;;;;;;;23.23;39.68;98413.06;4657641;30;19971;-84
2022/07/15 10:39:49;;;;;;;;;;;;;;;24.72;36.83;98401.44;4658735;30;19982;-82
2022/07/15 10:42:17;;;;;;;;;;;;;;;25.52;36.62;98401.16;4658333;30;19954;-83
2022/07/15 10:45:01;;;;;;;;;;;;;;;26.54;34.52;98410.53;4643541;30;19939;-85
2022/07/15 10:47:30;;;;;;;;;;;;;;;26.71;34.31;98420.31;4655994;30;20404;-84
2022/07/15 10:49:57;;;;;;;;;;;;;;;25.73;35.51;98422.94;4636030;30;20415;-84
2022/07/15 10:52:25;;;;;;;;;;;;;;;23.87;39.06;98419.84;4641686;30;19954;-83
2022/07/15 10:54:54;;;;;;;;;;;;;;;23.64;40.35;98438.78;4647782;30;19995;-83
2022/07/15 10:57:44;;;;;;;;;;;;;;;23.22;40.33;98426.03;4641635;30;20026;-86
2022/07/15 11:00:20;;;;;;;;;;;;;;;23.08;40.48;98451.13;4649166;30;20074;-85
2022/07/15 11:03:01;;;;;;;;;;;;;;;22.77;39.06;98429.56;4695610;30;19941;-83
2022/07/15 11:05:28;;;;;;;;;;;;;;;22.88;38.80;98424.44;4694839;30;19931;-84
2022/07/15 11:07:59;;;;;;;;;;;;;;;23.05;39.31;98431.75;4709167;30;19932;-83
2022/07/15 11:10:26;;;;;;;;;;;;;;;23.01;39.92;98436.31;4709254;30;20454;-86
2022/07/15 11:12:53;;;;;;;;;;;;;;;23.94;38.49;98425.59;4713341;30;19930;-86
2022/07/15 11:15:23;;;;;;;;;;;;;;;24.95;36.49;98423.75;4715427;30;19934;-84
2022/07/15 11:17:53;;;;;;;;;;;;;;;24.68;37.08;98452.97;4715327;30;19930;-85
2022/07/15 11:20:30;;;;;;;;;;;;;;;24.46;37.79;98446.84;4715371;30;19934;-84
2022/07/15 11:22:57;;;;;;;;;;;;;;;24.35;38.50;98431.91;4713777;30;19930;-85
2022/07/15 11:25:26;;;;;;;;;;;;;;;25.06;35.68;98431.13;4715138;30;20776;-84
2022/07/15 11:28:07;;;;;;;;;;;;;;;26.00;35.15;98425.94;4700345;30;19937;-85
2022/07/15 11:30:35;;;;;;;;;;;;;;;26.65;34.71;98428.13;4715799;30;20374;-85
2022/07/15 11:33:03;;;;;;;;;;;;;;;28.06;33.04;98418.25;4709325;30;19989;-83
2022/07/15 11:35:30;;;;;;;;;;;;;;;28.47;30.42;98452.50;4714185;30;19930;-86
2022/07/15 11:37:58;;;;;;;;;;;;;;;27.58;31.28;98412.38;4715958;30;19981;-86
2022/07/15 11:46:00;;;;;;;;;;;;;;;24.25;37.09;98432.41;4705967;30;19938;-85
2022/07/15 11:48:27;;;;;;;;;;;;;;;24.36;37.16;98433.53;4711592;30;20568;-86
2022/07/15 11:50:56;;;;;;;;;;;;;;;24.65;37.30;98443.44;4710230;30;19938;-85
2022/07/15 11:53:23;;;;;;;;;;;;;;;25.29;35.76;98444.34;4709642;30;19931;-86
2022/07/15 11:55:57;;;;;;;;;;;;;;;24.61;36.77;98443.34;4717229;30;19981;-86
2022/07/15 11:58:28;;;;;;;;;;;;;;;24.19;37.58;98449.19;4717823;30;20394;-88
2022/07/15 12:00:56;;;;;;;;;;;;;;;23.78;38.44;98451.09;4717209;30;19950;-85
2022/07/15 12:03:23;;;;;;;;;;;;;;;23.70;38.46;98462.19;4717495;30;19972;-86
2022/07/15 12:06:01;;;;;;;;;;;;;;;23.33;39.47;98446.47;4718649;30;19937;-86
2022/07/15 12:08:35;;;;;;;;;;;;;;;23.72;39.23;98448.88;4718868;30;19973;-86
2022/07/15 12:11:02;;;;;;;;;;;;;;;24.38;38.21;98442.22;4719208;30;19987;-87
2022/07/15 12:13:40;;;;;;;;;;;;;;;24.93;37.11;98442.59;4726133;30;19971;-87
2022/07/15 12:16:07;;;;;;;;;;;;;;;24.31;37.56;98448.38;4719327;30;19946;-89
2022/07/15 12:18:39;;;;;;;;;;;;;;;25.42;37.25;98447.84;4703796;30;19934;-88
2022/07/15 12:21:06;;;;;;;;;;;;;;;26.71;34.90;98448.00;4703007;30;19970;-87
2022/07/15 12:23:33;;;;;;;;;;;;;;;26.60;33.59;98472.69;4709890;30;19938;-87
2022/07/15 12:26:01;;;;;;;;;;;;;;;26.55;33.72;98453.59;4706230;30;20482;-88
2022/07/15 12:28:29;;;;;;;;;;;;;;;26.84;33.33;98456.94;4706355;30;20126;-87
2022/07/15 12:30:59;;;;;;;;;;;;;;;24.87;35.26;98458.63;4712180;30;20383;-86
2022/07/15 12:33:26;;;;;;;;;;;;;;;23.64;37.40;98463.56;4716244;30;20038;-87
2022/07/15 12:36:14;;;;;;;;;;;;;;;22.96;38.70;98453.00;4707747;30;19988;-87
2022/07/15 12:38:42;;;;;;;;;;;;;;;22.61;38.89;98454.16;4712659;30;20015;-86
2022/07/15 12:41:30;;;;;;;;;;;;;;;22.48;39.98;98467.06;4718607;30;19994;-86
2022/07/15 12:44:01;;;;;;;;;;;;;;;22.90;40.38;98466.97;4718569;30;20358;-86
2022/07/15 12:46:53;;;;;;;;;;;;;;;25.40;35.95;98461.22;4717180;30;19958;-87
2022/07/15 12:49:56;;;;;;;;;;;;;;;25.51;35.03;98473.31;4716806;30;19938;-85
2022/07/15 12:52:25;;;;;;;;;;;;;;;25.34;35.84;98474.47;4678160;30;19932;-87
2022/07/15 12:54:54;;;;;;;;;;;;;;;26.20;34.07;98470.22;4680056;30;19931;-86
2022/07/15 12:57:41;;;;;;;;;;;;;;;27.14;31.67;98480.06;4677055;30;20026;-85
2022/07/15 13:00:11;;;;;;;;;;;;;;;27.37;31.52;98482.06;4678189;30;19932;-85
2022/07/15 13:02:58;;;;;;;;;;;;;;;27.40;30.83;98465.53;4663774;30;20002;-86
2022/07/15 13:05:30;;;;;;;;;;;;;;;28.33;29.46;98468.91;4675685;30;20440;-87
2022/07/15 13:07:57;;;;;;;;;;;;;;;27.53;30.13;98468.91;4675437;30;20026;-87
2022/07/15 13:10:24;;;;;;;;;;;;;;;27.64;30.43;98469.88;4679692;30;20273;-86
2022/07/15 13:12:53;;;;;;;;;;;;;;;28.35;29.00;98482.44;4659989;30;20032;-87
2022/07/15 13:15:20;;;;;;;;;;;;;;;27.96;28.95;98474.38;4680060;30;20450;-86
2022/07/15 13:17:49;;;;;;;;;;;;;;;27.66;29.46;98483.38;4681090;30;19935;-88
2022/07/15 13:20:16;;;;;;;;;;;;;;;27.67;29.00;98477.47;4681659;30;20457;-88
2022/07/15 13:22:43;;;;;;;;;;;;;;;28.41;29.01;98461.50;4681000;30;19970;-85
2022/07/15 13:25:11;;;;;;;;;;;;;;;28.73;28.48;98478.56;4680767;30;20304;-85
2022/07/15 13:27:38;;;;;;;;;;;;;;;28.83;27.99;98485.44;4699417;30;20291;-86
2022/07/15 13:30:05;;;;;;;;;;;;;;;28.13;29.17;98489.66;4700188;30;19931;-85
2022/07/15 13:32:32;;;;;;;;;;;;;;;29.39;27.87;98460.25;4703948;30;20004;-89
2022/07/15 13:34:59;;;;;;;;;;;;;;;30.56;26.64;98475.41;4712909;30;20399;-85
2022/07/15 13:37:29;;;;;;;;;;;;;;;30.47;26.07;98474.94;4712379;30;19942;-83
2022/07/15 13:39:56;;;;;;;;;;;;;;;28.63;27.34;98465.38;4400203;30;9999923;-86
2022/07/15 13:42:28;;;;;;;;;;;;;;;28.36;28.41;98498.72;4711646;30;19938;-85
2022/07/15 13:44:56;;;;;;;;;;;;;;;28.09;28.72;98486.84;4705038;30;19982;-87
2022/07/15 13:47:23;;;;;;;;;;;;;;;28.75;28.18;98467.91;4697247;30;19982;-86
2022/07/15 13:52:50;;;;;;;;;;;;;;;30.67;26.26;98486.56;4705097;30;20323;-87
2022/07/15 13:55:18;;;;;;;;;;;;;;;29.64;26.16;98470.00;4706571;30;19934;-83
2022/07/15 13:57:45;;;;;;;;;;;;;;;28.31;27.84;98454.66;4706715;30;19993;-82
2022/07/15 14:00:16;;;;;;;;;;;;;;;28.21;28.70;98446.97;4705105;30;19944;-86
2022/07/15 14:02:43;;;;;;;;;;;;;;;28.09;28.02;98462.66;4682888;30;20286;-85